sensor_id;sensor_type;location;lat;lon;timestamp;temperature;humidity
78522;SHT31;67819;51.972;5.678;2023-03-04T00:01:23;7.7;57.0
78522;SHT31;67819;51.972;5.678;2023-03-04T00:03:52;7.6;57.3
78522;SHT31;67819;51.972;5.678;2023-03-04T00:06:22;7.6;57.6
78522;SHT31;67819;51.972;5.678;2023-03-04T00:08:52;7.6;57.8
78522;SHT31;67819;51.972;5.678;2023-03-04T00:11:22;7.6;57.8
78522;SHT31;67819;51.972;5.678;2023-03-04T00:13:52;7.6;57.5
78522;SHT31;67819;51.972;5.678;2023-03-04T00:16:21;7.5;57.5
78522;SHT31;67819;51.972;5.678;2023-03-04T00:18:53;7.5;57.6
78522;SHT31;67819;51.972;5.678;2023-03-04T00:21:23;7.5;58.0
78522;SHT31;67819;51.972;5.678;2023-03-04T00:23:53;7.4;58.3
78522;SHT31;67819;51.972;5.678;2023-03-04T00:26:23;7.4;58.2
78522;SHT31;67819;51.972;5.678;2023-03-04T00:28:52;7.4;58.4
78522;SHT31;67819;51.972;5.678;2023-03-04T00:31:22;7.4;58.5
78522;SHT31;67819;51.972;5.678;2023-03-04T00:33:51;7.4;58.6
78522;SHT31;67819;51.972;5.678;2023-03-04T00:36:21;7.4;58.9
78522;SHT31;67819;51.972;5.678;2023-03-04T00:38:51;7.3;59.0
78522;SHT31;67819;51.972;5.678;2023-03-04T00:41:21;7.3;59.2
78522;SHT31;67819;51.972;5.678;2023-03-04T00:43:50;7.3;59.3
78522;SHT31;67819;51.972;5.678;2023-03-04T00:46:20;7.4;59.5
78522;SHT31;67819;51.972;5.678;2023-03-04T00:48:50;7.4;59.5
78522;SHT31;67819;51.972;5.678;2023-03-04T00:51:19;7.4;59.7
78522;SHT31;67819;51.972;5.678;2023-03-04T00:53:49;7.4;59.5
78522;SHT31;67819;51.972;5.678;2023-03-04T00:56:19;7.4;59.3
78522;SHT31;67819;51.972;5.678;2023-03-04T00:58:48;7.4;59.6
78522;SHT31;67819;51.972;5.678;2023-03-04T01:01:18;7.4;59.5
78522;SHT31;67819;51.972;5.678;2023-03-04T01:03:49;7.4;59.5
78522;SHT31;67819;51.972;5.678;2023-03-04T01:06:19;7.4;59.6
78522;SHT31;67819;51.972;5.678;2023-03-04T01:08:49;7.4;59.5
78522;SHT31;67819;51.972;5.678;2023-03-04T01:11:19;7.4;59.7
78522;SHT31;67819;51.972;5.678;2023-03-04T01:13:50;7.4;59.9
78522;SHT31;67819;51.972;5.678;2023-03-04T01:16:19;7.5;59.9
78522;SHT31;67819;51.972;5.678;2023-03-04T01:18:49;7.5;59.7
78522;SHT31;67819;51.972;5.678;2023-03-04T01:21:19;7.5;59.5
78522;SHT31;67819;51.972;5.678;2023-03-04T01:23:48;7.5;59.5
78522;SHT31;67819;51.972;5.678;2023-03-04T01:26:18;7.5;59.5
78522;SHT31;67819;51.972;5.678;2023-03-04T01:28:47;7.5;59.5
78522;SHT31;67819;51.972;5.678;2023-03-04T01:31:17;7.5;59.7
78522;SHT31;67819;51.972;5.678;2023-03-04T01:33:46;7.5;59.9
78522;SHT31;67819;51.972;5.678;2023-03-04T01:36:16;7.5;60.3
78522;SHT31;67819;51.972;5.678;2023-03-04T01:38:46;7.5;60.4
78522;SHT31;67819;51.972;5.678;2023-03-04T01:41:24;7.5;60.3
78522;SHT31;67819;51.972;5.678;2023-03-04T01:43:54;7.5;60.8
78522;SHT31;67819;51.972;5.678;2023-03-04T01:46:24;7.5;60.7
78522;SHT31;67819;51.972;5.678;2023-03-04T01:48:54;7.6;59.8
78522;SHT31;67819;51.972;5.678;2023-03-04T01:51:24;7.6;59.5
78522;SHT31;67819;51.972;5.678;2023-03-04T01:53:54;7.6;58.9
78522;SHT31;67819;51.972;5.678;2023-03-04T01:56:28;7.5;58.8
78522;SHT31;67819;51.972;5.678;2023-03-04T01:59:08;7.5;58.7
78522;SHT31;67819;51.972;5.678;2023-03-04T02:01:38;7.5;59.0
78522;SHT31;67819;51.972;5.678;2023-03-04T02:04:11;7.5;59.2
78522;SHT31;67819;51.972;5.678;2023-03-04T02:06:42;7.4;59.5
78522;SHT31;67819;51.972;5.678;2023-03-04T02:09:13;7.4;59.4
78522;SHT31;67819;51.972;5.678;2023-03-04T02:11:45;7.4;59.5
78522;SHT31;67819;51.972;5.678;2023-03-04T02:14:16;7.4;59.7
78522;SHT31;67819;51.972;5.678;2023-03-04T02:16:47;7.4;60.0
78522;SHT31;67819;51.972;5.678;2023-03-04T02:19:27;7.4;60.0
78522;SHT31;67819;51.972;5.678;2023-03-04T02:21:59;7.4;59.9
78522;SHT31;67819;51.972;5.678;2023-03-04T02:24:37;7.4;60.1
78522;SHT31;67819;51.972;5.678;2023-03-04T02:27:08;7.5;59.9
78522;SHT31;67819;51.972;5.678;2023-03-04T02:29:38;7.5;59.5
78522;SHT31;67819;51.972;5.678;2023-03-04T02:32:12;7.5;59.8
78522;SHT31;67819;51.972;5.678;2023-03-04T02:34:46;7.5;59.6
78522;SHT31;67819;51.972;5.678;2023-03-04T02:37:18;7.5;59.2
78522;SHT31;67819;51.972;5.678;2023-03-04T02:39:48;7.5;59.1
78522;SHT31;67819;51.972;5.678;2023-03-04T02:42:18;7.5;59.2
78522;SHT31;67819;51.972;5.678;2023-03-04T02:44:48;7.5;59.0
78522;SHT31;67819;51.972;5.678;2023-03-04T02:47:18;7.5;59.2
78522;SHT31;67819;51.972;5.678;2023-03-04T02:49:47;7.5;59.0
78522;SHT31;67819;51.972;5.678;2023-03-04T02:52:20;7.6;58.7
78522;SHT31;67819;51.972;5.678;2023-03-04T02:54:50;7.6;58.3
78522;SHT31;67819;51.972;5.678;2023-03-04T02:57:20;7.6;58.0
78522;SHT31;67819;51.972;5.678;2023-03-04T02:59:49;7.6;58.0
78522;SHT31;67819;51.972;5.678;2023-03-04T03:02:19;7.6;58.0
78522;SHT31;67819;51.972;5.678;2023-03-04T03:04:50;7.5;58.2
78522;SHT31;67819;51.972;5.678;2023-03-04T03:07:20;7.5;58.4
78522;SHT31;67819;51.972;5.678;2023-03-04T03:09:50;7.5;58.5
78522;SHT31;67819;51.972;5.678;2023-03-04T03:12:19;7.5;58.8
78522;SHT31;67819;51.972;5.678;2023-03-04T03:14:49;7.5;58.9
78522;SHT31;67819;51.972;5.678;2023-03-04T03:17:18;7.5;58.9
78522;SHT31;67819;51.972;5.678;2023-03-04T03:19:48;7.5;58.8
78522;SHT31;67819;51.972;5.678;2023-03-04T03:22:18;7.5;58.9
78522;SHT31;67819;51.972;5.678;2023-03-04T03:24:47;7.5;58.7
78522;SHT31;67819;51.972;5.678;2023-03-04T03:27:17;7.5;58.7
78522;SHT31;67819;51.972;5.678;2023-03-04T03:29:47;7.5;59.0
78522;SHT31;67819;51.972;5.678;2023-03-04T03:32:16;7.5;59.2
78522;SHT31;67819;51.972;5.678;2023-03-04T03:34:46;7.6;59.2
78522;SHT31;67819;51.972;5.678;2023-03-04T03:37:15;7.6;59.3
78522;SHT31;67819;51.972;5.678;2023-03-04T03:39:45;7.6;59.6
78522;SHT31;67819;51.972;5.678;2023-03-04T03:42:15;7.6;59.4
78522;SHT31;67819;51.972;5.678;2023-03-04T03:44:44;7.6;59.2
78522;SHT31;67819;51.972;5.678;2023-03-04T03:47:14;7.6;59.5
78522;SHT31;67819;51.972;5.678;2023-03-04T03:49:43;7.6;59.2
78522;SHT31;67819;51.972;5.678;2023-03-04T03:52:13;7.6;59.2
78522;SHT31;67819;51.972;5.678;2023-03-04T03:54:43;7.6;59.0
78522;SHT31;67819;51.972;5.678;2023-03-04T03:57:12;7.6;58.8
78522;SHT31;67819;51.972;5.678;2023-03-04T03:59:42;7.5;58.9
78522;SHT31;67819;51.972;5.678;2023-03-04T04:02:11;7.5;58.6
78522;SHT31;67819;51.972;5.678;2023-03-04T04:04:41;7.5;58.8
78522;SHT31;67819;51.972;5.678;2023-03-04T04:07:10;7.5;58.3
78522;SHT31;67819;51.972;5.678;2023-03-04T04:09:40;7.5;58.3
78522;SHT31;67819;51.972;5.678;2023-03-04T04:12:10;7.5;58.5
78522;SHT31;67819;51.972;5.678;2023-03-04T04:14:42;7.5;58.3
78522;SHT31;67819;51.972;5.678;2023-03-04T04:17:13;7.4;58.4
78522;SHT31;67819;51.972;5.678;2023-03-04T04:19:43;7.4;58.5
78522;SHT31;67819;51.972;5.678;2023-03-04T04:22:15;7.4;58.5
78522;SHT31;67819;51.972;5.678;2023-03-04T04:24:46;7.4;58.6
78522;SHT31;67819;51.972;5.678;2023-03-04T04:27:18;7.4;58.6
78522;SHT31;67819;51.972;5.678;2023-03-04T04:29:49;7.4;59.1
78522;SHT31;67819;51.972;5.678;2023-03-04T04:32:18;7.4;59.3
78522;SHT31;67819;51.972;5.678;2023-03-04T04:34:48;7.4;59.2
78522;SHT31;67819;51.972;5.678;2023-03-04T04:37:17;7.4;59.5
78522;SHT31;67819;51.972;5.678;2023-03-04T04:39:47;7.5;59.6
78522;SHT31;67819;51.972;5.678;2023-03-04T04:42:18;7.5;59.6
78522;SHT31;67819;51.972;5.678;2023-03-04T04:44:47;7.5;59.6
78522;SHT31;67819;51.972;5.678;2023-03-04T04:47:19;7.4;59.7
78522;SHT31;67819;51.972;5.678;2023-03-04T04:49:48;7.4;59.8
78522;SHT31;67819;51.972;5.678;2023-03-04T04:52:18;7.4;60.1
78522;SHT31;67819;51.972;5.678;2023-03-04T04:54:49;7.4;60.3
78522;SHT31;67819;51.972;5.678;2023-03-04T04:57:19;7.3;60.3
78522;SHT31;67819;51.972;5.678;2023-03-04T04:59:49;7.3;60.3
78522;SHT31;67819;51.972;5.678;2023-03-04T05:02:19;7.4;60.7
78522;SHT31;67819;51.972;5.678;2023-03-04T05:04:49;7.4;60.8
78522;SHT31;67819;51.972;5.678;2023-03-04T05:07:18;7.4;60.6
78522;SHT31;67819;51.972;5.678;2023-03-04T05:09:48;7.4;60.4
78522;SHT31;67819;51.972;5.678;2023-03-04T05:12:17;7.5;60.3
78522;SHT31;67819;51.972;5.678;2023-03-04T05:14:47;7.5;59.8
78522;SHT31;67819;51.972;5.678;2023-03-04T05:17:17;7.5;59.5
78522;SHT31;67819;51.972;5.678;2023-03-04T05:19:46;7.5;59.4
78522;SHT31;67819;51.972;5.678;2023-03-04T05:22:16;7.4;59.0
78522;SHT31;67819;51.972;5.678;2023-03-04T05:24:47;7.4;59.4
78522;SHT31;67819;51.972;5.678;2023-03-04T05:27:18;7.4;59.4
78522;SHT31;67819;51.972;5.678;2023-03-04T05:29:47;7.4;59.9
78522;SHT31;67819;51.972;5.678;2023-03-04T05:32:17;7.4;59.9
78522;SHT31;67819;51.972;5.678;2023-03-04T05:34:46;7.4;59.5
78522;SHT31;67819;51.972;5.678;2023-03-04T05:37:16;7.3;59.6
78522;SHT31;67819;51.972;5.678;2023-03-04T05:39:45;7.3;59.5
78522;SHT31;67819;51.972;5.678;2023-03-04T05:42:15;7.3;59.5
78522;SHT31;67819;51.972;5.678;2023-03-04T05:44:45;7.4;59.5
78522;SHT31;67819;51.972;5.678;2023-03-04T05:47:14;7.4;59.5
78522;SHT31;67819;51.972;5.678;2023-03-04T05:49:44;7.4;59.7
78522;SHT31;67819;51.972;5.678;2023-03-04T05:52:13;7.4;59.9
78522;SHT31;67819;51.972;5.678;2023-03-04T05:54:43;7.5;59.9
78522;SHT31;67819;51.972;5.678;2023-03-04T05:57:12;7.5;59.9
78522;SHT31;67819;51.972;5.678;2023-03-04T05:59:42;7.5;60.2
78522;SHT31;67819;51.972;5.678;2023-03-04T06:02:12;7.5;60.4
78522;SHT31;67819;51.972;5.678;2023-03-04T06:04:41;7.5;60.2
78522;SHT31;67819;51.972;5.678;2023-03-04T06:07:11;7.5;60.3
78522;SHT31;67819;51.972;5.678;2023-03-04T06:09:40;7.5;60.5
78522;SHT31;67819;51.972;5.678;2023-03-04T06:12:11;7.5;60.8
78522;SHT31;67819;51.972;5.678;2023-03-04T06:14:41;7.5;61.1
78522;SHT31;67819;51.972;5.678;2023-03-04T06:17:10;7.5;61.2
78522;SHT31;67819;51.972;5.678;2023-03-04T06:19:40;7.4;61.4
78522;SHT31;67819;51.972;5.678;2023-03-04T06:22:10;7.4;61.8
78522;SHT31;67819;51.972;5.678;2023-03-04T06:24:40;7.4;61.6
78522;SHT31;67819;51.972;5.678;2023-03-04T06:27:11;7.5;61.7
78522;SHT31;67819;51.972;5.678;2023-03-04T06:29:43;7.5;61.9
78522;SHT31;67819;51.972;5.678;2023-03-04T06:32:12;7.5;61.7
78522;SHT31;67819;51.972;5.678;2023-03-04T06:34:42;7.5;61.8
78522;SHT31;67819;51.972;5.678;2023-03-04T06:37:11;7.5;61.7
78522;SHT31;67819;51.972;5.678;2023-03-04T06:39:41;7.6;61.6
78522;SHT31;67819;51.972;5.678;2023-03-04T06:42:11;7.6;61.5
78522;SHT31;67819;51.972;5.678;2023-03-04T06:44:41;7.6;61.3
78522;SHT31;67819;51.972;5.678;2023-03-04T06:47:10;7.6;61.2
78522;SHT31;67819;51.972;5.678;2023-03-04T06:49:40;7.6;61.1
78522;SHT31;67819;51.972;5.678;2023-03-04T06:52:10;7.7;61.2
78522;SHT31;67819;51.972;5.678;2023-03-04T06:54:39;7.7;61.5
78522;SHT31;67819;51.972;5.678;2023-03-04T06:57:11;7.7;61.3
78522;SHT31;67819;51.972;5.678;2023-03-04T06:59:43;7.8;61.5
78522;SHT31;67819;51.972;5.678;2023-03-04T07:02:13;7.8;61.3
78522;SHT31;67819;51.972;5.678;2023-03-04T07:04:44;7.8;61.3
78522;SHT31;67819;51.972;5.678;2023-03-04T07:07:16;7.8;61.1
78522;SHT31;67819;51.972;5.678;2023-03-04T07:09:45;7.9;61.1
78522;SHT31;67819;51.972;5.678;2023-03-04T07:12:15;7.9;61.4
78522;SHT31;67819;51.972;5.678;2023-03-04T07:14:44;7.9;61.5
78522;SHT31;67819;51.972;5.678;2023-03-04T07:17:14;7.9;61.7
78522;SHT31;67819;51.972;5.678;2023-03-04T07:19:44;7.9;62.0
78522;SHT31;67819;51.972;5.678;2023-03-04T07:22:13;7.9;63.0
78522;SHT31;67819;51.972;5.678;2023-03-04T07:24:43;7.8;64.9
78522;SHT31;67819;51.972;5.678;2023-03-04T07:27:12;7.8;66.0
78522;SHT31;67819;51.972;5.678;2023-03-04T07:29:42;7.8;66.8
78522;SHT31;67819;51.972;5.678;2023-03-04T07:32:11;7.8;67.6
78522;SHT31;67819;51.972;5.678;2023-03-04T07:34:41;7.7;68.6
78522;SHT31;67819;51.972;5.678;2023-03-04T07:37:12;7.5;68.9
78522;SHT31;67819;51.972;5.678;2023-03-04T07:39:42;7.5;69.1
78522;SHT31;67819;51.972;5.678;2023-03-04T07:42:12;7.4;68.9
78522;SHT31;67819;51.972;5.678;2023-03-04T07:44:41;7.4;68.9
78522;SHT31;67819;51.972;5.678;2023-03-04T07:47:11;7.4;70.0
78522;SHT31;67819;51.972;5.678;2023-03-04T07:49:40;7.4;69.3
78522;SHT31;67819;51.972;5.678;2023-03-04T07:52:12;7.4;69.4
78522;SHT31;67819;51.972;5.678;2023-03-04T07:54:42;7.5;69.6
78522;SHT31;67819;51.972;5.678;2023-03-04T07:57:13;7.6;69.5
78522;SHT31;67819;51.972;5.678;2023-03-04T07:59:43;7.7;69.2
78522;SHT31;67819;51.972;5.678;2023-03-04T08:02:13;7.7;68.6
78522;SHT31;67819;51.972;5.678;2023-03-04T08:04:42;7.8;68.8
78522;SHT31;67819;51.972;5.678;2023-03-04T08:07:12;7.8;68.4
78522;SHT31;67819;51.972;5.678;2023-03-04T08:09:41;7.9;68.4
78522;SHT31;67819;51.972;5.678;2023-03-04T08:12:11;7.9;67.9
78522;SHT31;67819;51.972;5.678;2023-03-04T08:14:41;8.0;67.5
78522;SHT31;67819;51.972;5.678;2023-03-04T08:17:10;8.0;67.1
78522;SHT31;67819;51.972;5.678;2023-03-04T08:19:41;8.1;67.0
78522;SHT31;67819;51.972;5.678;2023-03-04T08:22:11;8.1;66.8
78522;SHT31;67819;51.972;5.678;2023-03-04T08:24:40;8.1;66.1
78522;SHT31;67819;51.972;5.678;2023-03-04T08:27:10;8.2;65.7
78522;SHT31;67819;51.972;5.678;2023-03-04T08:29:40;8.2;65.4
78522;SHT31;67819;51.972;5.678;2023-03-04T08:32:09;8.2;65.2
78522;SHT31;67819;51.972;5.678;2023-03-04T08:34:39;8.2;65.3
78522;SHT31;67819;51.972;5.678;2023-03-04T08:37:09;8.3;65.2
78522;SHT31;67819;51.972;5.678;2023-03-04T08:39:38;8.3;65.2
78522;SHT31;67819;51.972;5.678;2023-03-04T08:42:08;8.3;65.4
78522;SHT31;67819;51.972;5.678;2023-03-04T08:44:38;8.3;65.1
78522;SHT31;67819;51.972;5.678;2023-03-04T08:47:07;8.3;65.2
78522;SHT31;67819;51.972;5.678;2023-03-04T08:49:37;8.3;65.5
78522;SHT31;67819;51.972;5.678;2023-03-04T08:52:07;8.4;65.2
78522;SHT31;67819;51.972;5.678;2023-03-04T08:54:37;8.4;65.2
78522;SHT31;67819;51.972;5.678;2023-03-04T08:57:06;8.4;64.8
78522;SHT31;67819;51.972;5.678;2023-03-04T08:59:36;8.4;64.6
78522;SHT31;67819;51.972;5.678;2023-03-04T09:02:06;8.4;64.6
78522;SHT31;67819;51.972;5.678;2023-03-04T09:04:35;8.5;64.6
78522;SHT31;67819;51.972;5.678;2023-03-04T09:07:05;8.5;64.5
78522;SHT31;67819;51.972;5.678;2023-03-04T09:09:35;8.5;64.4
78522;SHT31;67819;51.972;5.678;2023-03-04T09:12:05;8.5;64.7
78522;SHT31;67819;51.972;5.678;2023-03-04T09:14:35;8.5;65.5
78522;SHT31;67819;51.972;5.678;2023-03-04T09:17:05;8.5;64.8
78522;SHT31;67819;51.972;5.678;2023-03-04T09:19:38;8.6;65.3
78522;SHT31;67819;51.972;5.678;2023-03-04T09:22:08;8.6;65.3
78522;SHT31;67819;51.972;5.678;2023-03-04T09:24:37;8.5;66.0
78522;SHT31;67819;51.972;5.678;2023-03-04T09:27:10;8.5;66.5
78522;SHT31;67819;51.972;5.678;2023-03-04T09:29:39;8.5;67.2
78522;SHT31;67819;51.972;5.678;2023-03-04T09:32:09;8.5;67.8
78522;SHT31;67819;51.972;5.678;2023-03-04T09:34:39;8.5;69.0
78522;SHT31;67819;51.972;5.678;2023-03-04T09:37:09;8.5;70.5
78522;SHT31;67819;51.972;5.678;2023-03-04T09:39:39;8.4;71.7
78522;SHT31;67819;51.972;5.678;2023-03-04T09:42:22;8.4;71.8
78522;SHT31;67819;51.972;5.678;2023-03-04T09:44:53;8.4;72.1
78522;SHT31;67819;51.972;5.678;2023-03-04T09:47:27;8.4;71.6
78522;SHT31;67819;51.972;5.678;2023-03-04T09:50:01;8.4;70.8
78522;SHT31;67819;51.972;5.678;2023-03-04T09:52:40;8.4;70.9
78522;SHT31;67819;51.972;5.678;2023-03-04T09:55:20;8.3;72.9
78522;SHT31;67819;51.972;5.678;2023-03-04T09:57:59;8.2;74.2
78522;SHT31;67819;51.972;5.678;2023-03-04T10:00:35;8.2;74.0
78522;SHT31;67819;51.972;5.678;2023-03-04T10:03:19;8.1;73.5
78522;SHT31;67819;51.972;5.678;2023-03-04T10:05:54;8.1;74.3
78522;SHT31;67819;51.972;5.678;2023-03-04T10:08:35;8.1;74.9
78522;SHT31;67819;51.972;5.678;2023-03-04T10:11:12;8.2;72.0
78522;SHT31;67819;51.972;5.678;2023-03-04T10:13:59;8.3;72.5
78522;SHT31;67819;51.972;5.678;2023-03-04T10:16:33;8.3;71.7
78522;SHT31;67819;51.972;5.678;2023-03-04T10:19:20;8.4;71.4
78522;SHT31;67819;51.972;5.678;2023-03-04T10:21:51;8.5;70.1
78522;SHT31;67819;51.972;5.678;2023-03-04T10:24:25;8.6;69.7
78522;SHT31;67819;51.972;5.678;2023-03-04T10:27:00;8.7;69.4
78522;SHT31;67819;51.972;5.678;2023-03-04T10:29:32;8.8;68.5
78522;SHT31;67819;51.972;5.678;2023-03-04T10:32:02;8.9;68.0
78522;SHT31;67819;51.972;5.678;2023-03-04T10:34:32;8.9;69.0
78522;SHT31;67819;51.972;5.678;2023-03-04T10:37:04;8.9;69.2
78522;SHT31;67819;51.972;5.678;2023-03-04T10:39:38;8.9;68.9
78522;SHT31;67819;51.972;5.678;2023-03-04T10:42:27;8.9;69.1
78522;SHT31;67819;51.972;5.678;2023-03-04T10:45:05;8.9;69.6
78522;SHT31;67819;51.972;5.678;2023-03-04T10:47:38;8.9;68.3
78522;SHT31;67819;51.972;5.678;2023-03-04T10:50:24;8.9;69.1
78522;SHT31;67819;51.972;5.678;2023-03-04T10:52:55;8.9;68.5
78522;SHT31;67819;51.972;5.678;2023-03-04T10:55:29;8.9;68.3
78522;SHT31;67819;51.972;5.678;2023-03-04T10:58:03;8.9;67.9
78522;SHT31;67819;51.972;5.678;2023-03-04T11:00:35;9.0;67.9
78522;SHT31;67819;51.972;5.678;2023-03-04T11:03:21;9.0;68.3
78522;SHT31;67819;51.972;5.678;2023-03-04T11:05:51;9.0;68.9
78522;SHT31;67819;51.972;5.678;2023-03-04T11:08:25;9.0;68.9
78522;SHT31;67819;51.972;5.678;2023-03-04T11:10:55;9.0;69.3
78522;SHT31;67819;51.972;5.678;2023-03-04T11:13:25;9.1;68.9
78522;SHT31;67819;51.972;5.678;2023-03-04T11:15:57;9.1;68.7
78522;SHT31;67819;51.972;5.678;2023-03-04T11:18:37;9.1;68.2
78522;SHT31;67819;51.972;5.678;2023-03-04T11:21:17;9.2;67.7
78522;SHT31;67819;51.972;5.678;2023-03-04T11:23:51;9.3;66.9
78522;SHT31;67819;51.972;5.678;2023-03-04T11:26:28;9.4;66.3
78522;SHT31;67819;51.972;5.678;2023-03-04T11:29:04;9.4;66.3
78522;SHT31;67819;51.972;5.678;2023-03-04T11:31:41;9.5;65.8
78522;SHT31;67819;51.972;5.678;2023-03-04T11:34:16;9.6;65.2
78522;SHT31;67819;51.972;5.678;2023-03-04T11:36:54;9.6;64.7
78522;SHT31;67819;51.972;5.678;2023-03-04T11:39:30;9.6;64.6
78522;SHT31;67819;51.972;5.678;2023-03-04T11:42:05;9.7;64.8
78522;SHT31;67819;51.972;5.678;2023-03-04T11:44:38;9.7;63.6
78522;SHT31;67819;51.972;5.678;2023-03-04T11:47:31;9.8;63.1
78522;SHT31;67819;51.972;5.678;2023-03-04T11:50:13;9.8;63.3
78522;SHT31;67819;51.972;5.678;2023-03-04T11:53:12;9.9;64.4
78522;SHT31;67819;51.972;5.678;2023-03-04T11:55:53;9.8;65.6
78522;SHT31;67819;51.972;5.678;2023-03-04T11:59:57;9.7;67.6
78522;SHT31;67819;51.972;5.678;2023-03-04T12:02:38;9.4;69.1
78522;SHT31;67819;51.972;5.678;2023-03-04T12:05:22;9.3;70.6
78522;SHT31;67819;51.972;5.678;2023-03-04T12:08:15;9.2;68.7
78522;SHT31;67819;51.972;5.678;2023-03-04T12:10:51;9.1;67.8
78522;SHT31;67819;51.972;5.678;2023-03-04T12:13:49;9.0;69.3
78522;SHT31;67819;51.972;5.678;2023-03-04T12:16:38;8.9;70.0
78522;SHT31;67819;51.972;5.678;2023-03-04T12:19:26;8.9;69.9
78522;SHT31;67819;51.972;5.678;2023-03-04T12:22:19;9.0;70.2
78522;SHT31;67819;51.972;5.678;2023-03-04T12:30:02;9.3;68.2
78522;SHT31;67819;51.972;5.678;2023-03-04T12:32:44;9.5;67.5
78522;SHT31;67819;51.972;5.678;2023-03-04T12:35:23;9.6;66.0
78522;SHT31;67819;51.972;5.678;2023-03-04T12:38:18;9.8;65.4
78522;SHT31;67819;51.972;5.678;2023-03-04T12:40:57;10.0;63.7
78522;SHT31;67819;51.972;5.678;2023-03-04T12:43:41;10.1;63.6
78522;SHT31;67819;51.972;5.678;2023-03-04T12:46:28;10.1;62.0
78522;SHT31;67819;51.972;5.678;2023-03-04T12:49:21;10.1;60.4
78522;SHT31;67819;51.972;5.678;2023-03-04T12:52:05;10.1;59.2
78522;SHT31;67819;51.972;5.678;2023-03-04T12:54:40;9.9;59.7
78522;SHT31;67819;51.972;5.678;2023-03-04T12:57:13;9.7;59.9
78522;SHT31;67819;51.972;5.678;2023-03-04T12:59:51;9.6;59.9
78522;SHT31;67819;51.972;5.678;2023-03-04T13:02:34;9.5;59.9
78522;SHT31;67819;51.972;5.678;2023-03-04T13:05:26;9.4;60.7
78522;SHT31;67819;51.972;5.678;2023-03-04T13:08:06;9.4;61.2
78522;SHT31;67819;51.972;5.678;2023-03-04T13:10:38;9.4;61.0
78522;SHT31;67819;51.972;5.678;2023-03-04T13:13:34;9.4;60.7
78522;SHT31;67819;51.972;5.678;2023-03-04T13:16:05;9.5;57.9
78522;SHT31;67819;51.972;5.678;2023-03-04T13:18:39;9.5;58.4
78522;SHT31;67819;51.972;5.678;2023-03-04T13:21:21;9.6;58.1
78522;SHT31;67819;51.972;5.678;2023-03-04T13:23:52;9.7;57.8
78522;SHT31;67819;51.972;5.678;2023-03-04T13:26:32;9.7;57.2
78522;SHT31;67819;51.972;5.678;2023-03-04T13:29:34;9.8;57.2
78522;SHT31;67819;51.972;5.678;2023-03-04T13:32:09;10.0;58.8
78522;SHT31;67819;51.972;5.678;2023-03-04T13:34:44;10.2;56.7
78522;SHT31;67819;51.972;5.678;2023-03-04T13:37:31;10.4;55.3
78522;SHT31;67819;51.972;5.678;2023-03-04T13:40:35;10.5;54.5
78522;SHT31;67819;51.972;5.678;2023-03-04T13:43:38;10.4;53.7
78522;SHT31;67819;51.972;5.678;2023-03-04T13:46:37;10.4;53.8
78522;SHT31;67819;51.972;5.678;2023-03-04T13:49:14;10.3;54.2
78522;SHT31;67819;51.972;5.678;2023-03-04T13:51:43;10.1;54.8
78522;SHT31;67819;51.972;5.678;2023-03-04T13:54:20;10.0;54.7
78522;SHT31;67819;51.972;5.678;2023-03-04T13:57:17;9.9;55.9
78522;SHT31;67819;51.972;5.678;2023-03-04T13:59:49;9.8;56.7
78522;SHT31;67819;51.972;5.678;2023-03-04T14:02:24;9.7;57.5
78522;SHT31;67819;51.972;5.678;2023-03-04T14:04:59;9.7;57.8
78522;SHT31;67819;51.972;5.678;2023-03-04T14:07:32;9.7;58.7
78522;SHT31;67819;51.972;5.678;2023-03-04T14:10:05;9.7;58.8
78522;SHT31;67819;51.972;5.678;2023-03-04T14:12:38;9.7;59.6
78522;SHT31;67819;51.972;5.678;2023-03-04T14:15:21;9.6;59.9
78522;SHT31;67819;51.972;5.678;2023-03-04T14:17:53;9.4;60.9
78522;SHT31;67819;51.972;5.678;2023-03-04T14:20:28;9.3;60.0
78522;SHT31;67819;51.972;5.678;2023-03-04T14:23:00;9.2;60.3
78522;SHT31;67819;51.972;5.678;2023-03-04T14:25:32;9.1;60.7
78522;SHT31;67819;51.972;5.678;2023-03-04T14:28:08;9.1;60.0
78522;SHT31;67819;51.972;5.678;2023-03-04T14:30:40;9.0;59.0
78522;SHT31;67819;51.972;5.678;2023-03-04T14:33:14;9.0;58.7
78522;SHT31;67819;51.972;5.678;2023-03-04T14:35:48;9.0;57.9
78522;SHT31;67819;51.972;5.678;2023-03-04T14:38:23;9.0;57.4
78522;SHT31;67819;51.972;5.678;2023-03-04T14:40:57;9.0;57.3
78522;SHT31;67819;51.972;5.678;2023-03-04T14:43:31;8.9;57.4
78522;SHT31;67819;51.972;5.678;2023-03-04T14:46:07;8.9;57.3
78522;SHT31;67819;51.972;5.678;2023-03-04T14:48:48;9.0;54.7
78522;SHT31;67819;51.972;5.678;2023-03-04T14:51:31;9.0;52.7
78522;SHT31;67819;51.972;5.678;2023-03-04T14:54:01;9.0;52.6
78522;SHT31;67819;51.972;5.678;2023-03-04T14:56:34;9.0;53.2
78522;SHT31;67819;51.972;5.678;2023-03-04T14:59:04;9.0;52.8
78522;SHT31;67819;51.972;5.678;2023-03-04T15:01:34;9.0;52.4
78522;SHT31;67819;51.972;5.678;2023-03-04T15:04:07;9.0;51.7
78522;SHT31;67819;51.972;5.678;2023-03-04T15:06:46;9.0;51.4
78522;SHT31;67819;51.972;5.678;2023-03-04T15:09:21;9.0;51.6
78522;SHT31;67819;51.972;5.678;2023-03-04T15:11:56;9.0;51.5
78522;SHT31;67819;51.972;5.678;2023-03-04T15:14:43;9.0;52.1
78522;SHT31;67819;51.972;5.678;2023-03-04T15:17:25;9.1;52.2
78522;SHT31;67819;51.972;5.678;2023-03-04T15:19:59;9.3;52.0
78522;SHT31;67819;51.972;5.678;2023-03-04T15:22:29;9.5;51.5
78522;SHT31;67819;51.972;5.678;2023-03-04T15:24:59;9.7;51.5
78522;SHT31;67819;51.972;5.678;2023-03-04T15:27:31;9.8;50.9
78522;SHT31;67819;51.972;5.678;2023-03-04T15:30:01;9.9;50.5
78522;SHT31;67819;51.972;5.678;2023-03-04T15:32:30;9.9;50.9
78522;SHT31;67819;51.972;5.678;2023-03-04T15:35:04;9.9;51.2
78522;SHT31;67819;51.972;5.678;2023-03-04T15:37:35;9.9;51.4
78522;SHT31;67819;51.972;5.678;2023-03-04T15:40:13;9.8;52.4
78522;SHT31;67819;51.972;5.678;2023-03-04T15:42:44;9.7;53.4
78522;SHT31;67819;51.972;5.678;2023-03-04T15:45:20;9.6;54.6
78522;SHT31;67819;51.972;5.678;2023-03-04T15:47:50;9.5;54.9
78522;SHT31;67819;51.972;5.678;2023-03-04T15:50:20;9.4;55.2
78522;SHT31;67819;51.972;5.678;2023-03-04T15:52:51;9.2;55.6
78522;SHT31;67819;51.972;5.678;2023-03-04T15:55:22;9.1;55.5
78522;SHT31;67819;51.972;5.678;2023-03-04T15:57:55;9.1;54.2
78522;SHT31;67819;51.972;5.678;2023-03-04T16:00:27;9.0;54.3
78522;SHT31;67819;51.972;5.678;2023-03-04T16:02:59;9.0;54.4
78522;SHT31;67819;51.972;5.678;2023-03-04T16:05:28;8.9;54.5
78522;SHT31;67819;51.972;5.678;2023-03-04T16:07:58;8.9;55.1
78522;SHT31;67819;51.972;5.678;2023-03-04T16:10:29;8.9;55.4
78522;SHT31;67819;51.972;5.678;2023-03-04T16:12:59;8.8;56.1
78522;SHT31;67819;51.972;5.678;2023-03-04T16:15:29;8.8;56.0
78522;SHT31;67819;51.972;5.678;2023-03-04T16:17:58;8.8;55.4
78522;SHT31;67819;51.972;5.678;2023-03-04T16:20:29;8.7;54.5
78522;SHT31;67819;51.972;5.678;2023-03-04T16:23:00;8.7;54.7
78522;SHT31;67819;51.972;5.678;2023-03-04T16:25:31;8.7;54.9
78522;SHT31;67819;51.972;5.678;2023-03-04T16:28:00;8.7;54.5
78522;SHT31;67819;51.972;5.678;2023-03-04T16:30:31;8.7;54.7
78522;SHT31;67819;51.972;5.678;2023-03-04T16:33:00;8.7;55.7
78522;SHT31;67819;51.972;5.678;2023-03-04T16:35:31;8.7;55.8
78522;SHT31;67819;51.972;5.678;2023-03-04T16:38:08;8.7;55.4
78522;SHT31;67819;51.972;5.678;2023-03-04T16:40:40;8.7;55.5
78522;SHT31;67819;51.972;5.678;2023-03-04T16:43:11;8.7;55.2
78522;SHT31;67819;51.972;5.678;2023-03-04T16:45:41;8.7;55.1
78522;SHT31;67819;51.972;5.678;2023-03-04T16:48:11;8.6;53.9
78522;SHT31;67819;51.972;5.678;2023-03-04T16:50:41;8.6;53.3
78522;SHT31;67819;51.972;5.678;2023-03-04T16:53:22;8.5;54.0
78522;SHT31;67819;51.972;5.678;2023-03-04T16:55:53;8.5;54.3
78522;SHT31;67819;51.972;5.678;2023-03-04T16:58:22;8.5;55.0
78522;SHT31;67819;51.972;5.678;2023-03-04T17:00:52;8.4;54.5